Time;durP1;ratioP1;P1;durP2;ratioP2;P2;SDS_P1;SDS_P2;PMS_P1;PMS_P2;Temp;Humidity;BMP_temperature;BMP_pressure;BME280_temperature;BME280_humidity;BME280_pressure;Samples;Min_cycle;Max_cycle;Signal;HPM_P1;HPM_P2
2024/02/25 00:04:50;;;;;;;1.00;0.75;;;;;;;17.42;53.33;99817.19;10449924;28;20441;-58
2024/02/25 00:09:50;;;;;;;1.00;0.70;;;;;;;17.40;53.95;99816.66;10449967;28;20068;-58
2024/02/25 00:14:50;;;;;;;1.52;0.60;;;;;;;17.40;52.88;99810.53;10446898;28;20298;-58
2024/02/25 00:19:51;;;;;;;1.53;0.80;;;;;;;17.41;53.43;99801.41;10448557;28;20132;-58
2024/02/25 00:24:51;;;;;;;2.05;0.70;;;;;;;17.40;53.42;99795.25;10449506;28;20347;-58
2024/02/25 00:29:52;;;;;;;1.87;0.70;;;;;;;17.39;53.17;99796.34;10449577;28;20029;-57
2024/02/25 00:34:52;;;;;;;1.83;0.70;;;;;;;17.39;53.84;99790.97;10449647;28;20283;-58
2024/02/25 00:39:52;;;;;;;1.00;0.57;;;;;;;17.38;54.16;99796.66;10449631;28;20033;-58
2024/02/25 00:44:53;;;;;;;1.10;0.63;;;;;;;17.41;52.71;99801.41;10448847;28;20029;-58
2024/02/25 00:49:53;;;;;;;1.55;0.70;;;;;;;17.38;52.61;99785.94;10449471;28;20036;-58
2024/02/25 00:54:53;;;;;;;0.87;0.73;;;;;;;17.40;53.87;99797.91;10448914;28;20040;-58
2024/02/25 00:59:54;;;;;;;1.83;0.70;;;;;;;17.39;53.28;99792.88;10449553;28;20301;-58
2024/02/25 01:04:54;;;;;;;2.07;0.50;;;;;;;17.37;53.99;99790.50;10448763;28;20025;-58
2024/02/25 01:09:54;;;;;;;1.63;0.70;;;;;;;17.37;52.61;99795.88;10448724;28;20299;-57
2024/02/25 01:14:55;;;;;;;1.40;0.70;;;;;;;17.37;54.22;99789.72;10448507;28;20036;-58
2024/02/25 01:19:55;;;;;;;1.60;0.90;;;;;;;17.40;53.14;99791.75;10448524;28;20858;-58
2024/02/25 01:24:55;;;;;;;1.05;0.65;;;;;;;17.39;54.04;99788.28;10449529;28;20028;-58
2024/02/25 01:29:56;;;;;;;1.88;0.75;;;;;;;17.40;53.86;99787.19;10456174;28;20032;-58
2024/02/25 01:34:56;;;;;;;0.90;0.50;;;;;;;17.38;53.68;99785.94;10455440;28;20104;-58
2024/02/25 01:39:56;;;;;;;0.95;0.52;;;;;;;17.38;52.95;99783.25;10455794;28;20774;-58
2024/02/25 01:45:00;;;;;;;1.00;0.70;;;;;;;17.39;53.01;99785.63;10449567;28;20056;-59
2024/02/25 01:50:00;;;;;;;0.77;0.50;;;;;;;17.38;52.95;99783.25;10455513;28;20333;-58
2024/02/25 01:55:01;;;;;;;0.95;0.40;;;;;;;17.38;53.66;99777.91;10451263;28;20457;-58
2024/02/25 02:00:01;;;;;;;0.80;0.57;;;;;;;17.38;54.24;99777.91;10455020;28;20074;-58
2024/02/25 02:05:04;;;;;;;1.48;0.77;;;;;;;17.38;53.95;99777.91;10454219;28;20070;-58
2024/02/25 02:10:10;;;;;;;1.45;0.73;;;;;;;17.40;53.47;99771.13;10454180;28;20110;-59
2024/02/25 02:15:11;;;;;;;0.82;0.60;;;;;;;17.37;52.67;99760.25;10453906;28;20063;-58
2024/02/25 02:20:15;;;;;;;1.08;0.50;;;;;;;17.39;53.71;99769.53;10453763;28;20031;-57
2024/02/25 02:25:16;;;;;;;1.80;0.93;;;;;;;17.39;53.00;99766.88;10452589;28;20465;-58
2024/02/25 02:30:16;;;;;;;1.02;0.57;;;;;;;17.39;52.94;99764.19;10453329;28;20124;-58
2024/02/25 02:35:17;;;;;;;0.97;0.43;;;;;;;17.38;52.87;99770.66;10453239;28;20415;-58
2024/02/25 02:40:17;;;;;;;0.88;0.50;;;;;;;17.41;53.23;99767.38;10450399;28;20283;-58
2024/02/25 02:45:18;;;;;;;1.33;0.60;;;;;;;17.39;53.79;99766.88;10442388;28;20029;-57
2024/02/25 02:50:18;;;;;;;0.60;0.60;;;;;;;17.40;53.96;99773.00;10452695;28;20025;-58
2024/02/25 02:55:18;;;;;;;0.80;0.60;;;;;;;17.38;53.68;99767.16;10453053;28;20295;-58
2024/02/25 03:00:19;;;;;;;0.90;0.50;;;;;;;17.37;52.36;99771.75;10452086;28;20151;-58
2024/02/25 03:05:19;;;;;;;1.38;0.80;;;;;;;17.41;53.27;99769.25;10450894;28;20333;-58
2024/02/25 03:10:20;;;;;;;1.17;0.40;;;;;;;17.39;53.30;99769.53;10451509;28;20404;-58
2024/02/25 03:15:20;;;;;;;1.35;0.60;;;;;;;17.40;53.41;99763.06;10451882;28;20957;-58
2024/02/25 03:20:21;;;;;;;0.47;0.30;;;;;;;17.40;53.50;99765.75;10451445;28;20051;-58
2024/02/25 03:25:21;;;;;;;1.20;0.40;;;;;;;17.36;53.05;99764.81;10451375;28;20753;-58
2024/02/25 03:30:21;;;;;;;0.63;0.50;;;;;;;17.40;53.02;99764.97;10450909;28;20279;-58
2024/02/25 03:35:22;;;;;;;0.80;0.50;;;;;;;17.38;53.00;99761.81;10451334;28;20108;-58
2024/02/25 03:40:22;;;;;;;0.50;0.50;;;;;;;17.39;53.74;99766.88;10450569;28;20032;-57
2024/02/25 03:45:22;;;;;;;1.30;0.43;;;;;;;17.39;53.16;99772.22;10450782;28;20271;-59
2024/02/25 03:50:23;;;;;;;0.77;0.50;;;;;;;17.40;53.54;99768.44;10450061;28;20834;-58
2024/02/25 03:55:24;;;;;;;0.90;0.40;;;;;;;17.41;53.08;99769.25;10448854;28;20371;-58
2024/02/25 04:00:25;;;;;;;0.57;0.40;;;;;;;17.41;52.95;99766.56;10450356;28;20025;-58
2024/02/25 04:05:25;;;;;;;0.98;0.30;;;;;;;17.40;53.24;99764.97;10449606;28;20472;-58
2024/02/25 04:10:26;;;;;;;1.10;0.70;;;;;;;17.42;52.26;99768.94;10449709;28;20411;-58
2024/02/25 04:15:27;;;;;;;0.80;0.40;;;;;;;17.40;53.65;99765.75;10449423;28;20345;-58
2024/02/25 04:20:27;;;;;;;0.70;0.50;;;;;;;17.41;53.35;99775.41;10450256;28;20480;-58
2024/02/25 04:25:27;;;;;;;2.53;0.77;;;;;;;17.40;52.72;99768.44;10449526;28;20017;-58
2024/02/25 04:30:29;;;;;;;1.00;0.40;;;;;;;17.39;53.18;99774.91;10449626;28;21587;-58
2024/02/25 04:35:30;;;;;;;0.20;0.20;;;;;;;17.40;53.16;99765.75;10448929;28;20295;-58
2024/02/25 04:40:30;;;;;;;0.63;0.47;;;;;;;17.41;52.76;99769.25;10449533;28;20588;-58
2024/02/25 04:45:30;;;;;;;5.00;0.40;;;;;;;17.41;52.24;99769.25;10449071;28;20021;-58
2024/02/25 04:50:32;;;;;;;1.03;0.30;;;;;;;17.40;53.87;99767.66;10449223;28;20622;-58
2024/02/25 04:55:32;;;;;;;0.50;0.38;;;;;;;17.40;52.97;99770.31;10448882;28;20025;-58
2024/02/25 05:00:32;;;;;;;1.00;0.63;;;;;;;17.40;53.40;99770.31;10451428;28;20025;-57
2024/02/25 05:05:33;;;;;;;0.80;0.30;;;;;;;17.41;53.16;99778.09;10456458;28;20299;-58
2024/02/25 05:10:33;;;;;;;0.28;0.28;;;;;;;17.39;52.52;99780.25;10451206;28;20636;-58
2024/02/25 05:15:34;;;;;;;0.40;0.20;;;;;;;17.38;53.45;99777.91;10456054;28;20052;-58
2024/02/25 05:20:34;;;;;;;0.95;0.35;;;;;;;17.41;53.42;99782.66;10456470;28;20032;-59
2024/02/25 05:25:35;;;;;;;0.60;0.30;;;;;;;17.42;53.08;99776.19;10455825;28;20033;-58
2024/02/25 05:30:35;;;;;;;0.43;0.28;;;;;;;17.39;53.40;99782.94;10442335;28;20279;-58
2024/02/25 05:35:36;;;;;;;1.13;0.35;;;;;;;17.40;52.23;99786.41;10448416;28;20033;-58
2024/02/25 05:40:40;;;;;;;0.75;0.40;;;;;;;17.38;52.98;99776.00;10452473;28;20017;-58
2024/02/25 05:45:41;;;;;;;0.35;0.28;;;;;;;17.38;53.67;99776.00;10441046;28;20461;-58
2024/02/25 05:50:41;;;;;;;0.93;0.35;;;;;;;17.40;52.75;99789.09;10439495;28;20037;-58
2024/02/25 05:55:41;;;;;;;0.68;0.52;;;;;;;17.40;53.97;99784.50;10450953;28;20078;-58
2024/02/25 06:00:42;;;;;;;1.63;0.30;;;;;;;17.37;52.77;99789.72;10442468;28;20043;-58
2024/02/25 06:05:42;;;;;;;0.67;0.20;;;;;;;17.40;53.13;99797.91;10442692;28;20417;-57
2024/02/25 06:10:42;;;;;;;0.50;0.30;;;;;;;17.36;53.13;99796.19;10442519;28;20308;-58
2024/02/25 06:15:43;;;;;;;1.70;0.30;;;;;;;17.34;52.64;99804.53;10450343;28;20294;-57
2024/02/25 06:20:43;;;;;;;6.70;0.45;;;;;;;17.40;53.01;99802.47;10444152;28;20384;-60
2024/02/25 06:25:43;;;;;;;4.83;1.13;;;;;;;17.45;54.77;99816.56;10442325;28;20468;-60
2024/02/25 06:30:44;;;;;;;8.37;0.90;;;;;;;17.43;54.76;99817.97;10443356;28;20279;-62
2024/02/25 06:35:44;;;;;;;9.53;1.27;;;;;;;17.44;54.88;99822.22;10441818;28;20370;-60
2024/02/25 06:40:44;;;;;;;6.97;1.30;;;;;;;17.48;55.34;99826.66;10440787;28;20830;-59
2024/02/25 06:45:45;;;;;;;6.83;1.03;;;;;;;17.44;54.63;99833.72;10442689;28;20299;-55
2024/02/25 06:50:45;;;;;;;6.75;0.80;;;;;;;17.38;53.28;99831.47;10435882;28;20604;-56
2024/02/25 06:55:45;;;;;;;4.70;1.07;;;;;;;17.36;53.54;99834.47;10450770;28;20029;-58
2024/02/25 07:00:47;;;;;;;13.03;0.87;;;;;;;17.42;53.62;99835.94;10446361;28;20969;-57
2024/02/25 07:05:47;;;;;;;6.63;1.27;;;;;;;17.46;53.26;99834.22;10444393;28;20283;-58
2024/02/25 07:10:50;;;;;;;8.73;1.40;;;;;;;17.27;54.68;99839.00;10449980;28;20059;-58
2024/02/25 07:15:50;;;;;;;5.78;1.00;;;;;;;17.38;52.97;99845.66;10449733;28;20717;-57
2024/02/25 07:20:50;;;;;;;6.00;0.63;;;;;;;17.36;53.56;99841.72;10449037;28;20036;-58
2024/02/25 07:25:51;;;;;;;10.53;2.13;;;;;;;17.42;53.14;99851.22;10440882;28;20020;-58
2024/02/25 07:30:51;;;;;;;8.52;0.90;;;;;;;17.43;52.78;99848.22;10450002;28;20279;-57
2024/02/25 07:35:51;;;;;;;2.45;0.60;;;;;;;17.37;52.79;99852.13;10442509;28;20037;-57
2024/02/25 07:40:53;;;;;;;5.10;0.73;;;;;;;17.36;53.55;99852.44;10449403;28;20439;-58
2024/02/25 07:45:54;;;;;;;2.30;0.57;;;;;;;17.32;53.94;99862.19;10437620;28;20027;-59
2024/02/25 07:50:54;;;;;;;2.63;0.85;;;;;;;17.34;54.09;99868.03;10449382;28;20535;-58
2024/02/25 07:55:55;;;;;;;5.73;0.87;;;;;;;17.29;54.28;99870.88;10436448;28;20400;-59
2024/02/25 08:00:55;;;;;;;4.83;0.80;;;;;;;17.28;54.35;99867.38;10430663;28;20283;-59
2024/02/25 08:05:55;;;;;;;4.33;0.53;;;;;;;17.20;54.99;99878.84;10435890;28;20272;-59
2024/02/25 08:10:55;;;;;;;8.97;1.03;;;;;;;17.28;53.98;99869.25;10449239;28;20288;-60
2024/02/25 08:15:57;;;;;;;13.75;1.90;;;;;;;17.35;55.23;99872.31;10443374;28;20322;-59
2024/02/25 08:20:57;;;;;;;22.67;3.70;;;;;;;17.38;54.82;99872.47;10449460;28;20021;-61
2024/02/25 08:25:57;;;;;;;12.73;1.60;;;;;;;17.44;55.53;99876.63;10441069;28;20040;-60
2024/02/25 08:30:58;;;;;;;9.27;1.55;;;;;;;17.43;56.90;99880.41;10449598;28;20283;-62
2024/02/25 08:35:58;;;;;;;12.32;1.27;;;;;;;17.41;55.74;99881.81;10454286;28;20021;-63
2024/02/25 08:40:58;;;;;;;10.67;1.30;;;;;;;17.35;55.67;99883.03;10458051;28;20032;-64
2024/02/25 08:45:59;;;;;;;9.20;1.80;;;;;;;17.29;55.29;99887.72;10457305;28;20690;-65
2024/02/25 08:50:59;;;;;;;10.73;1.60;;;;;;;17.22;55.29;99893.50;10457645;28;20499;-64
2024/02/25 08:56:00;;;;;;;12.23;1.93;;;;;;;17.15;54.77;99890.47;10455390;28;20029;-63
2024/02/25 09:01:00;;;;;;;10.35;1.60;;;;;;;17.15;55.08;99897.72;10457206;28;20323;-65
2024/02/25 09:06:00;;;;;;;5.97;1.27;;;;;;;17.14;56.65;99898.81;10456366;28;20055;-65
2024/02/25 09:11:00;;;;;;;8.97;1.20;;;;;;;17.14;56.02;99893.44;10455310;28;20336;-64
2024/02/25 09:16:01;;;;;;;13.50;1.70;;;;;;;17.11;56.79;99894.06;10456224;28;20651;-67
2024/02/25 09:21:01;;;;;;;7.65;1.40;;;;;;;17.04;57.15;99891.00;10455355;28;20071;-59
2024/02/25 09:26:06;;;;;;;11.05;1.67;;;;;;;17.09;55.88;99889.03;10456089;28;20111;-59
2024/02/25 09:31:08;;;;;;;6.13;1.55;;;;;;;16.98;56.56;99900.28;10454776;28;20036;-61
2024/02/25 09:36:09;;;;;;;13.52;2.08;;;;;;;16.92;57.03;99886.19;10456140;28;20033;-59
2024/02/25 09:41:09;;;;;;;13.25;2.55;;;;;;;16.90;56.83;99894.53;10455451;28;20377;-58
2024/02/25 09:46:10;;;;;;;16.75;2.00;;;;;;;16.90;57.97;99896.44;10453109;28;20048;-59
2024/02/25 09:51:10;;;;;;;10.75;1.83;;;;;;;16.88;57.21;99893.28;10453119;28;20029;-60
2024/02/25 09:56:11;;;;;;;18.35;3.05;;;;;;;16.89;57.60;99898.31;10453485;28;20369;-60
2024/02/25 10:01:11;;;;;;;23.13;2.90;;;;;;;16.92;57.76;99892.34;10453405;28;20029;-60
2024/02/25 10:06:12;;;;;;;27.67;2.30;;;;;;;16.93;58.38;99898.53;10453526;28;20332;-59
2024/02/25 10:11:13;;;;;;;19.85;2.80;;;;;;;16.90;57.48;99891.88;10453503;28;20146;-60
2024/02/25 10:16:15;;;;;;;15.48;3.25;;;;;;;17.03;57.17;99895.56;10452898;28;20033;-60
2024/02/25 10:21:15;;;;;;;21.35;2.15;;;;;;;17.03;58.25;99895.56;10453322;28;20087;-59
2024/02/25 10:26:18;;;;;;;25.55;2.88;;;;;;;17.00;57.34;99900.75;10452675;28;20059;-60
2024/02/25 10:31:18;;;;;;;16.42;2.30;;;;;;;16.94;58.33;99898.22;10453797;28;20024;-59
2024/02/25 10:36:24;;;;;;;7.00;1.90;;;;;;;16.94;57.73;99902.78;10453391;28;20369;-63
2024/02/25 10:41:25;;;;;;;8.43;2.42;;;;;;;16.92;56.60;99903.06;10452375;28;20283;-61
2024/02/25 10:46:42;;;;;;;12.63;2.60;;;;;;;16.87;57.50;99902.41;10452928;28;20024;-62
2024/02/25 10:51:43;;;;;;;18.75;3.25;;;;;;;16.89;56.99;99901.00;10449292;28;20273;-59
2024/02/25 10:56:45;;;;;;;11.88;2.10;;;;;;;16.91;56.91;99906.03;10451133;28;20385;-61
2024/02/25 11:01:48;;;;;;;10.13;2.08;;;;;;;17.00;56.87;99916.81;10450381;28;20432;-61
2024/02/25 11:06:48;;;;;;;11.35;2.05;;;;;;;17.00;57.24;99914.16;10451297;28;20016;-58
2024/02/25 11:11:49;;;;;;;14.00;3.20;;;;;;;17.06;56.33;99911.06;10449834;28;20049;-60
2024/02/25 11:16:49;;;;;;;11.55;2.45;;;;;;;17.14;56.02;99899.59;10423052;28;20290;-60
2024/02/25 11:21:54;;;;;;;12.68;2.03;;;;;;;17.21;57.02;99908.00;10449978;28;20025;-60
2024/02/25 11:26:55;;;;;;;15.57;2.40;;;;;;;17.34;57.19;99901.00;10450368;28;20025;-61
2024/02/25 11:32:02;;;;;;;11.80;2.15;;;;;;;17.46;57.05;99895.84;10450348;28;20100;-63
2024/02/25 11:37:03;;;;;;;6.63;2.50;;;;;;;17.57;58.05;99890.22;10451018;28;20027;-61
2024/02/25 11:42:05;;;;;;;7.65;2.35;;;;;;;17.64;57.77;99896.75;10449875;28;20025;-62
2024/02/25 11:47:07;;;;;;;8.85;2.42;;;;;;;17.70;56.84;99897.41;10449686;28;20032;-61
2024/02/25 11:52:08;;;;;;;12.73;1.52;;;;;;;17.70;57.18;99889.38;10449747;28;20028;-63
2024/02/25 11:57:08;;;;;;;18.83;2.40;;;;;;;17.77;57.93;99901.25;10449194;28;20070;-62
2024/02/25 12:02:09;;;;;;;14.43;2.50;;;;;;;17.87;57.03;99892.09;10449451;28;20283;-62
2024/02/25 12:07:09;;;;;;;8.23;1.93;;;;;;;17.59;57.92;99891.50;10449261;28;20112;-59
2024/02/25 12:12:09;;;;;;;8.97;1.80;;;;;;;17.51;58.42;99893.03;10448284;28;20343;-60
2024/02/25 12:17:13;;;;;;;10.70;2.42;;;;;;;17.40;57.22;99886.34;10448557;28;20298;-60
2024/02/25 12:22:14;;;;;;;14.10;2.80;;;;;;;17.33;58.26;99885.22;10449228;28;20479;-60
2024/02/25 12:27:21;;;;;;;11.32;2.60;;;;;;;17.19;59.06;99878.06;10446824;28;20554;-60
2024/02/25 12:32:21;;;;;;;11.65;2.00;;;;;;;17.17;57.38;99874.09;10448518;28;20016;-59
2024/02/25 12:37:22;;;;;;;4.88;1.60;;;;;;;17.12;57.96;99879.56;10447453;28;20423;-59
2024/02/25 12:42:23;;;;;;;7.97;2.38;;;;;;;17.07;58.20;99875.16;10446854;28;20403;-59
2024/02/25 12:47:23;;;;;;;6.90;2.25;;;;;;;17.06;57.99;99870.88;10447714;28;20021;-64
2024/02/25 12:52:24;;;;;;;11.50;2.55;;;;;;;17.13;57.23;99862.41;10446744;28;20048;-62
2024/02/25 12:57:24;;;;;;;13.13;2.87;;;;;;;17.19;57.57;99861.97;10448486;28;20032;-64
2024/02/25 13:02:25;;;;;;;5.70;2.10;;;;;;;17.16;57.39;99848.38;10446071;28;20279;-62
2024/02/25 13:07:25;;;;;;;7.88;2.08;;;;;;;17.12;57.46;99858.94;10421601;28;20025;-61
2024/02/25 13:12:25;;;;;;;14.85;2.75;;;;;;;17.09;57.45;99853.41;10445959;28;20048;-63
2024/02/25 13:17:28;;;;;;;7.93;1.88;;;;;;;17.06;56.18;99854.03;10447094;28;20035;-62
2024/02/25 13:22:29;;;;;;;6.82;1.80;;;;;;;17.02;56.02;99845.78;10449361;28;20020;-62
2024/02/25 13:27:32;;;;;;;10.02;2.03;;;;;;;16.99;56.47;99841.06;10454610;28;20018;-61
2024/02/25 13:32:32;;;;;;;7.65;1.73;;;;;;;16.98;57.00;99865.47;10453025;28;20032;-60
2024/02/25 13:37:33;;;;;;;7.13;1.70;;;;;;;16.90;56.08;99856.25;10454371;28;20025;-58
2024/02/25 13:42:33;;;;;;;4.88;2.03;;;;;;;16.93;55.85;99859.16;10453180;28;20283;-59
2024/02/25 13:47:34;;;;;;;4.50;1.35;;;;;;;16.99;55.95;99854.44;10446054;28;20043;-58
2024/02/25 13:52:37;;;;;;;6.85;1.13;;;;;;;17.09;55.36;99827.41;10444192;28;20037;-59
2024/02/25 13:57:37;;;;;;;5.03;1.55;;;;;;;17.13;56.17;99823.00;10451788;28;20033;-59
2024/02/25 14:02:37;;;;;;;7.80;1.95;;;;;;;17.08;56.09;99820.47;10450675;28;20032;-58
2024/02/25 14:07:38;;;;;;;2.57;1.07;;;;;;;17.06;56.67;99817.31;10450486;28;20029;-58
2024/02/25 14:12:38;;;;;;;5.22;1.05;;;;;;;17.08;56.51;99827.72;10446762;28;20302;-58
2024/02/25 14:17:39;;;;;;;6.13;1.70;;;;;;;17.02;56.78;99820.91;10452938;28;20041;-58
2024/02/25 14:22:42;;;;;;;2.63;1.23;;;;;;;17.04;58.26;99822.16;10424755;28;20039;-58
2024/02/25 14:27:44;;;;;;;3.80;1.70;;;;;;;17.08;57.12;99823.16;10448927;28;20078;-59
2024/02/25 14:32:44;;;;;;;3.72;0.82;;;;;;;17.13;57.78;99819.53;10448272;28;20029;-58
2024/02/25 14:37:44;;;;;;;2.03;0.88;;;;;;;17.15;57.80;99820.81;10452349;28;20018;-59
2024/02/25 14:42:46;;;;;;;3.15;0.95;;;;;;;17.16;56.38;99817.03;10450118;28;20024;-59
2024/02/25 14:47:47;;;;;;;4.13;1.00;;;;;;;17.18;57.15;99814.88;10451954;28;20361;-58
2024/02/25 14:52:47;;;;;;;2.17;0.93;;;;;;;17.13;56.84;99811.50;10450279;28;20028;-58
2024/02/25 14:57:48;;;;;;;5.03;1.27;;;;;;;17.09;57.06;99805.97;10451356;28;20032;-58
2024/02/25 15:02:52;;;;;;;6.97;1.30;;;;;;;17.06;56.50;99801.25;10446757;28;20282;-58
2024/02/25 15:07:54;;;;;;;5.40;1.60;;;;;;;17.00;56.80;99796.31;10449377;28;20362;-56
2024/02/25 15:12:55;;;;;;;8.27;1.13;;;;;;;16.97;57.21;99795.06;10445210;28;20047;-57
2024/02/25 15:17:56;;;;;;;5.65;1.80;;;;;;;16.93;58.37;99800.22;10445976;28;20033;-58
2024/02/25 15:22:56;;;;;;;13.38;2.53;;;;;;;16.93;58.50;99810.16;10450296;28;20449;-58
2024/02/25 15:27:57;;;;;;;25.67;2.73;;;;;;;16.94;58.77;99815.19;10445331;28;20033;-58
2024/02/25 15:32:57;;;;;;;29.77;4.10;;;;;;;16.95;58.18;99816.00;10447081;28;20267;-57
2024/02/25 15:37:57;;;;;;;16.53;2.90;;;;;;;16.92;58.84;99803.19;10449814;28;20040;-58
2024/02/25 15:42:58;;;;;;;16.60;3.50;;;;;;;16.92;58.92;99795.94;10448316;28;20297;-59
2024/02/25 15:47:59;;;;;;;16.80;2.78;;;;;;;16.85;58.65;99792.94;10448424;28;20275;-59
2024/02/25 15:52:59;;;;;;;11.02;1.95;;;;;;;16.82;58.03;99796.22;10449716;28;20082;-59
2024/02/25 15:58:00;;;;;;;13.10;1.92;;;;;;;16.79;58.54;99796.81;10449772;28;20549;-59
2024/02/25 16:03:00;;;;;;;19.47;2.77;;;;;;;16.75;57.29;99784.38;10449333;28;20488;-59
2024/02/25 16:08:01;;;;;;;7.05;1.75;;;;;;;16.74;57.10;99780.91;10449405;28;20264;-58
2024/02/25 16:13:01;;;;;;;10.00;2.92;;;;;;;16.77;58.10;99780.28;10448862;28;20411;-58
2024/02/25 16:18:01;;;;;;;6.80;2.00;;;;;;;16.80;57.34;99774.31;10447780;28;20182;-58
2024/02/25 16:23:02;;;;;;;7.17;1.80;;;;;;;16.78;57.55;99771.16;10448948;28;20802;-58
2024/02/25 16:28:02;;;;;;;8.43;2.00;;;;;;;16.88;55.73;99776.25;10449516;28;20279;-58
2024/02/25 16:33:03;;;;;;;7.45;2.10;;;;;;;16.90;57.27;99784.75;10448401;28;20758;-59
2024/02/25 16:38:06;;;;;;;7.10;1.83;;;;;;;16.90;55.60;99775.94;10448976;28;20025;-59
2024/02/25 16:43:07;;;;;;;6.68;2.55;;;;;;;16.93;56.61;99765.44;10446821;28;20115;-59
2024/02/25 16:48:07;;;;;;;15.82;4.68;;;;;;;16.97;55.51;99767.47;10446006;28;20146;-60
2024/02/25 16:53:07;;;;;;;25.75;8.88;;;;;;;17.01;55.55;99771.13;10446327;28;20017;-60
2024/02/25 16:58:08;;;;;;;31.50;10.27;;;;;;;17.05;55.97;99780.94;10454869;28;20029;-60
2024/02/25 17:03:08;;;;;;;24.67;9.80;;;;;;;17.26;60.99;99775.78;10456029;28;20028;-63
2024/02/25 17:08:08;;;;;;;16.80;7.73;;;;;;;17.39;59.51;99788.28;10455141;28;20348;-62
2024/02/25 17:13:09;;;;;;;20.63;8.13;;;;;;;17.45;58.77;99797.00;10454423;28;20327;-62
2024/02/25 17:18:11;;;;;;;23.47;6.87;;;;;;;17.41;57.22;99807.56;10455709;28;20029;-62
2024/02/25 17:23:11;;;;;;;20.73;7.78;;;;;;;17.44;58.77;99811.50;10454012;28;20286;-62
2024/02/25 17:28:12;;;;;;;24.70;8.75;;;;;;;17.49;57.93;99804.09;10455731;28;20025;-60
2024/02/25 17:33:15;;;;;;;24.60;8.15;;;;;;;17.47;57.27;99810.88;10455159;28;20597;-59
2024/02/25 17:38:15;;;;;;;20.65;7.82;;;;;;;17.34;57.37;99811.78;10453469;28;20025;-59
2024/02/25 17:43:15;;;;;;;22.53;8.63;;;;;;;17.45;58.14;99827.28;10452243;28;20021;-60
2024/02/25 17:48:16;;;;;;;19.90;9.73;;;;;;;17.43;58.33;99826.00;10452141;28;20275;-61
2024/02/25 17:53:20;;;;;;;16.38;6.70;;;;;;;17.38;57.70;99828.81;10451126;28;20761;-61
2024/02/25 17:58:20;;;;;;;15.68;7.43;;;;;;;17.34;58.04;99825.16;10451604;28;20029;-60
2024/02/25 18:03:20;;;;;;;19.43;8.10;;;;;;;17.29;57.11;99828.78;10451022;28;20492;-60
2024/02/25 18:08:21;;;;;;;16.80;7.90;;;;;;;17.27;56.58;99811.41;10450252;28;20639;-60
2024/02/25 18:13:21;;;;;;;17.50;7.30;;;;;;;17.30;58.13;99819.66;10448885;28;21257;-61
2024/02/25 18:18:21;;;;;;;18.00;7.23;;;;;;;17.30;58.11;99819.66;10451449;28;20356;-61
2024/02/25 18:23:22;;;;;;;17.27;7.85;;;;;;;17.28;57.31;99818.34;10450970;28;20036;-61
2024/02/25 18:28:22;;;;;;;18.93;8.13;;;;;;;17.21;56.92;99826.84;10449841;28;20040;-61
2024/02/25 18:33:24;;;;;;;13.13;6.03;;;;;;;17.19;56.87;99826.38;10450564;28;20033;-61
2024/02/25 18:38:25;;;;;;;14.02;7.60;;;;;;;17.14;57.24;99821.13;10449661;28;20299;-61
2024/02/25 18:43:28;;;;;;;12.88;6.78;;;;;;;17.13;57.41;99814.97;10448823;28;20032;-61
2024/02/25 18:48:28;;;;;;;16.70;9.30;;;;;;;17.09;57.13;99827.41;10450618;28;20035;-61
2024/02/25 18:53:29;;;;;;;12.57;5.53;;;;;;;17.08;55.95;99822.38;10448544;28;20415;-61
2024/02/25 18:58:31;;;;;;;10.53;5.47;;;;;;;17.05;56.23;99820.28;10450279;28;20298;-61
2024/02/25 19:03:31;;;;;;;14.57;5.45;;;;;;;17.10;55.40;99828.19;10449744;28;20726;-61
2024/02/25 19:08:32;;;;;;;10.02;6.65;;;;;;;17.14;55.14;99818.44;10449354;28;20063;-61
2024/02/25 19:13:33;;;;;;;11.90;5.20;;;;;;;17.18;56.11;99809.50;10448044;28;20922;-63
2024/02/25 19:18:33;;;;;;;10.20;5.05;;;;;;;17.23;55.95;99806.69;10448034;28;20031;-63
2024/02/25 19:23:33;;;;;;;10.48;5.60;;;;;;;17.30;56.00;99795.53;10447706;28;20415;-63
2024/02/25 19:28:35;;;;;;;12.73;5.63;;;;;;;17.31;54.49;99794.44;10445646;28;20025;-62
2024/02/25 19:33:35;;;;;;;8.40;4.82;;;;;;;17.34;55.50;99784.97;10447104;28;20029;-62
2024/02/25 19:38:36;;;;;;;10.20;4.47;;;;;;;17.38;55.03;99789.41;10448811;28;20033;-63
2024/02/25 19:43:38;;;;;;;9.73;5.88;;;;;;;17.36;55.49;99788.91;10446469;28;20279;-63
2024/02/25 19:48:38;;;;;;;7.10;4.38;;;;;;;17.41;55.65;99775.41;10445932;28;20024;-63
2024/02/25 19:53:38;;;;;;;9.87;3.50;;;;;;;17.41;55.06;99778.09;10420196;28;20071;-62
2024/02/25 19:58:39;;;;;;;7.40;4.40;;;;;;;17.41;55.11;99767.38;10444287;28;20322;-62
2024/02/25 20:03:39;;;;;;;5.97;4.05;;;;;;;17.42;54.70;99776.19;10445904;28;20021;-62
2024/02/25 20:08:39;;;;;;;7.50;3.63;;;;;;;17.41;54.56;99779.97;10445571;28;20028;-62
2024/02/25 20:13:40;;;;;;;5.03;3.75;;;;;;;17.42;55.14;99776.97;10435692;28;20308;-62
2024/02/25 20:18:40;;;;;;;8.43;3.60;;;;;;;17.42;54.94;99778.88;10448476;28;20040;-62
2024/02/25 20:23:40;;;;;;;7.03;3.67;;;;;;;17.42;55.35;99779.66;10434747;28;20017;-63
2024/02/25 20:28:40;;;;;;;6.57;3.90;;;;;;;17.44;55.04;99780.13;10447904;28;20363;-63
2024/02/25 20:33:41;;;;;;;7.47;3.20;;;;;;;17.41;54.55;99785.34;10447405;28;20366;-62
2024/02/25 20:38:41;;;;;;;6.40;3.43;;;;;;;17.41;55.45;99785.34;10448591;28;20341;-62
2024/02/25 20:43:43;;;;;;;7.22;3.65;;;;;;;17.42;54.72;99782.34;10449183;28;20283;-62
2024/02/25 20:48:43;;;;;;;7.53;3.40;;;;;;;17.41;55.11;99788.81;10448284;28;20057;-62
2024/02/25 20:53:43;;;;;;;4.77;3.13;;;;;;;17.41;55.36;99790.69;10449095;28;20100;-62
2024/02/25 20:58:44;;;;;;;8.00;3.42;;;;;;;17.39;54.59;99787.50;10447921;28;20319;-62
2024/02/25 21:03:49;;;;;;;5.93;3.80;;;;;;;17.42;55.48;99784.22;10449301;28;20082;-63
2024/02/25 21:08:50;;;;;;;4.53;2.60;;;;;;;17.40;54.72;99784.50;10448458;28;20268;-63
2024/02/25 21:13:50;;;;;;;6.30;2.87;;;;;;;17.40;54.87;99781.84;10449984;28;20455;-62
2024/02/25 21:18:51;;;;;;;7.05;3.10;;;;;;;17.41;54.83;99775.41;10448951;28;20291;-62
2024/02/25 21:23:54;;;;;;;7.13;3.17;;;;;;;17.41;54.48;99780.75;10448074;28;20025;-62
2024/02/25 21:28:56;;;;;;;4.50;2.47;;;;;;;17.42;54.50;99779.66;10448841;28;20033;-62
2024/02/25 21:33:56;;;;;;;5.07;3.25;;;;;;;17.44;53.69;99774.00;10430827;28;20719;-62
2024/02/25 21:38:57;;;;;;;4.95;2.40;;;;;;;17.41;54.39;99774.63;10446843;28;20078;-62
2024/02/25 21:43:57;;;;;;;3.60;2.40;;;;;;;17.42;54.47;99774.31;10452078;28;20055;-62
2024/02/25 21:48:58;;;;;;;4.38;2.30;;;;;;;17.42;54.55;99771.63;10455358;28;20274;-63
2024/02/25 21:53:58;;;;;;;4.65;2.85;;;;;;;17.38;53.93;99759.13;10455530;28;20025;-62
2024/02/25 21:58:58;;;;;;;4.87;2.40;;;;;;;17.42;53.63;99754.75;10453737;28;20104;-63
2024/02/25 22:03:59;;;;;;;6.43;2.57;;;;;;;17.42;53.87;99760.91;10454968;28;20342;-62
2024/02/25 22:08:59;;;;;;;3.55;2.25;;;;;;;17.43;54.14;99761.69;10453546;28;20873;-62
2024/02/25 22:13:59;;;;;;;4.17;2.07;;;;;;;17.44;54.54;99752.56;10454536;28;20048;-62
2024/02/25 22:19:00;;;;;;;5.13;1.92;;;;;;;17.45;54.10;99749.56;10454279;28;20623;-62
2024/02/25 22:24:00;;;;;;;4.20;2.00;;;;;;;17.48;53.95;99748.94;10454457;28;20025;-62
2024/02/25 22:29:00;;;;;;;4.87;2.33;;;;;;;17.50;54.63;99741.34;10453809;28;20028;-62
2024/02/25 22:34:01;;;;;;;4.63;2.30;;;;;;;17.50;54.60;99735.22;10452469;28;20713;-62
2024/02/25 22:39:01;;;;;;;4.53;2.40;;;;;;;17.51;53.42;99740.25;10452188;28;20295;-63
2024/02/25 22:44:05;;;;;;;4.70;2.13;;;;;;;17.55;54.36;99735.09;10453737;28;20275;-62
2024/02/25 22:49:05;;;;;;;5.00;1.98;;;;;;;17.52;54.46;99738.38;10453010;28;20275;-62
2024/02/25 22:54:05;;;;;;;2.87;1.37;;;;;;;17.51;53.95;99740.25;10452996;28;20021;-63
2024/02/25 22:59:06;;;;;;;2.60;1.77;;;;;;;17.50;53.57;99740.56;10451537;28;20303;-62
2024/02/25 23:04:06;;;;;;;2.70;1.95;;;;;;;17.49;54.32;99745.13;10452813;28;20283;-63
2024/02/25 23:09:06;;;;;;;3.20;1.60;;;;;;;17.47;53.80;99758.06;10452416;28;20028;-62
2024/02/25 23:14:07;;;;;;;4.05;1.77;;;;;;;17.46;53.68;99753.81;10450827;28;20651;-62